Phoenix, Arizona
Traffic Map
Current Weather Conditions
Phoenix, Arizona
Broken Clouds
Broken Clouds
71°
Feels Like: 71°
Wind Chill: 71° Ceiling: 23000
Heat Index: 71° Visibility: 10mi
Dew Point: 34° Wind: 8mph
Humidity: 26% Direction: 100° (E)
Pressure: 29.86in Gusts: 0mph
Raw Report DataKPHX 181351Z 10007KT 10SM FEW150 SCT200 BKN230 22/01 A2986 RMK AO2 SLP095 T02170011
Traffic Incident Summary
Active as of:
Severity:
Category:
InformationThere was an issue retrieving the traffic information for this location. Please try a different location or try again shortly.
Advertisements
At Last! Intellicast now available for iPhone and Android